sensor_id;sensor_type;location;lat;lon;timestamp;P1;durP1;ratioP1;P2;durP2;ratioP2
25687;SDS011;17407;51.120;3.702;2023-05-20T00:00:02;24.25;;;15.35;;
25687;SDS011;17407;51.120;3.702;2023-05-20T00:02:28;25.95;;;14.68;;
25687;SDS011;17407;51.120;3.702;2023-05-20T00:04:54;25.23;;;14.48;;
25687;SDS011;17407;51.120;3.702;2023-05-20T00:07:20;26.60;;;14.88;;
25687;SDS011;17407;51.120;3.702;2023-05-20T00:09:45;23.58;;;15.00;;
25687;SDS011;17407;51.120;3.702;2023-05-20T00:12:11;27.58;;;14.45;;
25687;SDS011;17407;51.120;3.702;2023-05-20T00:14:36;25.90;;;14.35;;
25687;SDS011;17407;51.120;3.702;2023-05-20T00:17:02;21.80;;;13.13;;
25687;SDS011;17407;51.120;3.702;2023-05-20T00:19:28;23.55;;;13.88;;
25687;SDS011;17407;51.120;3.702;2023-05-20T00:21:53;27.95;;;13.07;;
25687;SDS011;17407;51.120;3.702;2023-05-20T00:24:21;20.05;;;11.65;;
25687;SDS011;17407;51.120;3.702;2023-05-20T00:26:47;17.90;;;11.10;;
25687;SDS011;17407;51.120;3.702;2023-05-20T00:29:13;22.95;;;11.00;;
25687;SDS011;17407;51.120;3.702;2023-05-20T00:31:39;22.35;;;10.43;;
25687;SDS011;17407;51.120;3.702;2023-05-20T00:34:04;20.73;;;10.13;;
25687;SDS011;17407;51.120;3.702;2023-05-20T00:36:30;20.75;;;10.27;;
25687;SDS011;17407;51.120;3.702;2023-05-20T00:38:55;15.02;;;9.80;;
25687;SDS011;17407;51.120;3.702;2023-05-20T00:41:21;15.13;;;9.00;;
25687;SDS011;17407;51.120;3.702;2023-05-20T00:43:47;16.92;;;9.75;;
25687;SDS011;17407;51.120;3.702;2023-05-20T00:46:12;20.02;;;9.23;;
25687;SDS011;17407;51.120;3.702;2023-05-20T00:48:39;22.27;;;8.93;;
25687;SDS011;17407;51.120;3.702;2023-05-20T00:51:06;15.80;;;8.82;;
25687;SDS011;17407;51.120;3.702;2023-05-20T00:53:33;13.98;;;8.50;;
25687;SDS011;17407;51.120;3.702;2023-05-20T00:56:00;14.32;;;8.88;;
25687;SDS011;17407;51.120;3.702;2023-05-20T00:58:25;18.05;;;8.73;;
25687;SDS011;17407;51.120;3.702;2023-05-20T01:00:51;17.10;;;8.82;;
25687;SDS011;17407;51.120;3.702;2023-05-20T01:03:17;18.20;;;8.10;;
25687;SDS011;17407;51.120;3.702;2023-05-20T01:05:43;20.52;;;9.05;;
25687;SDS011;17407;51.120;3.702;2023-05-20T01:08:08;16.27;;;8.23;;
25687;SDS011;17407;51.120;3.702;2023-05-20T01:10:34;14.73;;;7.97;;
25687;SDS011;17407;51.120;3.702;2023-05-20T01:13:07;13.18;;;8.05;;
25687;SDS011;17407;51.120;3.702;2023-05-20T01:15:35;14.90;;;8.15;;
25687;SDS011;17407;51.120;3.702;2023-05-20T01:18:04;13.20;;;7.55;;
25687;SDS011;17407;51.120;3.702;2023-05-20T01:20:32;13.75;;;7.88;;
25687;SDS011;17407;51.120;3.702;2023-05-20T01:22:59;18.33;;;8.75;;
25687;SDS011;17407;51.120;3.702;2023-05-20T01:25:25;15.68;;;7.20;;
25687;SDS011;17407;51.120;3.702;2023-05-20T01:27:51;15.85;;;7.97;;
25687;SDS011;17407;51.120;3.702;2023-05-20T01:30:19;12.63;;;8.40;;
25687;SDS011;17407;51.120;3.702;2023-05-20T01:32:47;14.15;;;7.93;;
25687;SDS011;17407;51.120;3.702;2023-05-20T01:35:18;21.35;;;7.20;;
25687;SDS011;17407;51.120;3.702;2023-05-20T01:37:45;11.45;;;7.28;;
25687;SDS011;17407;51.120;3.702;2023-05-20T01:40:13;15.38;;;8.13;;
25687;SDS011;17407;51.120;3.702;2023-05-20T01:42:40;15.80;;;8.43;;
25687;SDS011;17407;51.120;3.702;2023-05-20T01:45:07;14.32;;;7.75;;
25687;SDS011;17407;51.120;3.702;2023-05-20T01:47:33;20.15;;;8.30;;
25687;SDS011;17407;51.120;3.702;2023-05-20T01:49:59;14.68;;;7.53;;
25687;SDS011;17407;51.120;3.702;2023-05-20T01:52:25;19.58;;;7.65;;
25687;SDS011;17407;51.120;3.702;2023-05-20T01:54:50;17.00;;;7.70;;
25687;SDS011;17407;51.120;3.702;2023-05-20T01:57:20;15.45;;;7.88;;
25687;SDS011;17407;51.120;3.702;2023-05-20T01:59:46;17.10;;;7.57;;
25687;SDS011;17407;51.120;3.702;2023-05-20T02:02:12;13.98;;;8.15;;
25687;SDS011;17407;51.120;3.702;2023-05-20T02:04:38;13.18;;;7.72;;
25687;SDS011;17407;51.120;3.702;2023-05-20T02:07:06;10.05;;;6.97;;
25687;SDS011;17407;51.120;3.702;2023-05-20T02:09:32;12.85;;;7.97;;
25687;SDS011;17407;51.120;3.702;2023-05-20T02:11:57;14.10;;;7.32;;
25687;SDS011;17407;51.120;3.702;2023-05-20T02:14:23;18.05;;;8.23;;
25687;SDS011;17407;51.120;3.702;2023-05-20T02:16:49;17.60;;;7.78;;
25687;SDS011;17407;51.120;3.702;2023-05-20T02:19:14;18.05;;;7.85;;
25687;SDS011;17407;51.120;3.702;2023-05-20T02:21:47;20.10;;;8.25;;
25687;SDS011;17407;51.120;3.702;2023-05-20T02:24:13;11.00;;;7.20;;
25687;SDS011;17407;51.120;3.702;2023-05-20T02:26:38;15.15;;;7.78;;
25687;SDS011;17407;51.120;3.702;2023-05-20T02:29:04;15.35;;;8.05;;
25687;SDS011;17407;51.120;3.702;2023-05-20T02:31:30;18.02;;;9.07;;
25687;SDS011;17407;51.120;3.702;2023-05-20T02:33:55;14.00;;;7.82;;
25687;SDS011;17407;51.120;3.702;2023-05-20T02:36:21;11.88;;;7.25;;
25687;SDS011;17407;51.120;3.702;2023-05-20T02:38:47;15.27;;;7.25;;
25687;SDS011;17407;51.120;3.702;2023-05-20T02:41:12;14.98;;;7.53;;
25687;SDS011;17407;51.120;3.702;2023-05-20T02:43:38;18.20;;;8.00;;
25687;SDS011;17407;51.120;3.702;2023-05-20T02:46:04;15.25;;;7.13;;
25687;SDS011;17407;51.120;3.702;2023-05-20T02:48:30;15.40;;;7.55;;
25687;SDS011;17407;51.120;3.702;2023-05-20T02:50:57;14.75;;;8.30;;
25687;SDS011;17407;51.120;3.702;2023-05-20T02:53:23;17.25;;;7.57;;
25687;SDS011;17407;51.120;3.702;2023-05-20T02:55:49;10.90;;;6.78;;
25687;SDS011;17407;51.120;3.702;2023-05-20T02:58:15;12.77;;;7.55;;
25687;SDS011;17407;51.120;3.702;2023-05-20T03:00:41;17.30;;;7.40;;
25687;SDS011;17407;51.120;3.702;2023-05-20T03:03:07;12.50;;;8.05;;
25687;SDS011;17407;51.120;3.702;2023-05-20T03:05:34;14.27;;;7.40;;
25687;SDS011;17407;51.120;3.702;2023-05-20T03:08:07;11.40;;;6.82;;
25687;SDS011;17407;51.120;3.702;2023-05-20T03:10:34;14.45;;;7.28;;
25687;SDS011;17407;51.120;3.702;2023-05-20T03:13:00;11.40;;;7.13;;
25687;SDS011;17407;51.120;3.702;2023-05-20T03:15:26;9.13;;;7.40;;
25687;SDS011;17407;51.120;3.702;2023-05-20T03:17:52;15.73;;;7.55;;
25687;SDS011;17407;51.120;3.702;2023-05-20T03:20:18;14.32;;;7.43;;
25687;SDS011;17407;51.120;3.702;2023-05-20T03:22:44;18.50;;;7.75;;
25687;SDS011;17407;51.120;3.702;2023-05-20T03:25:10;13.15;;;7.35;;
25687;SDS011;17407;51.120;3.702;2023-05-20T03:27:35;15.95;;;8.25;;
25687;SDS011;17407;51.120;3.702;2023-05-20T03:30:02;15.45;;;8.13;;
25687;SDS011;17407;51.120;3.702;2023-05-20T03:32:28;11.90;;;7.43;;
25687;SDS011;17407;51.120;3.702;2023-05-20T03:34:54;18.23;;;8.10;;
25687;SDS011;17407;51.120;3.702;2023-05-20T03:37:22;15.65;;;7.70;;
25687;SDS011;17407;51.120;3.702;2023-05-20T03:39:47;12.52;;;7.35;;
25687;SDS011;17407;51.120;3.702;2023-05-20T03:42:13;14.55;;;7.80;;
25687;SDS011;17407;51.120;3.702;2023-05-20T03:44:39;13.43;;;7.15;;
25687;SDS011;17407;51.120;3.702;2023-05-20T03:47:04;16.40;;;7.72;;
25687;SDS011;17407;51.120;3.702;2023-05-20T03:49:30;14.45;;;7.65;;
25687;SDS011;17407;51.120;3.702;2023-05-20T03:51:56;11.32;;;6.90;;
25687;SDS011;17407;51.120;3.702;2023-05-20T03:54:21;14.55;;;8.05;;
25687;SDS011;17407;51.120;3.702;2023-05-20T03:56:47;13.65;;;7.95;;
25687;SDS011;17407;51.120;3.702;2023-05-20T03:59:13;15.13;;;7.53;;
25687;SDS011;17407;51.120;3.702;2023-05-20T04:01:39;15.93;;;7.93;;
25687;SDS011;17407;51.120;3.702;2023-05-20T04:04:04;15.93;;;7.95;;
25687;SDS011;17407;51.120;3.702;2023-05-20T04:06:30;14.60;;;8.30;;
25687;SDS011;17407;51.120;3.702;2023-05-20T04:08:56;14.40;;;7.38;;
25687;SDS011;17407;51.120;3.702;2023-05-20T04:11:22;13.02;;;7.15;;
25687;SDS011;17407;51.120;3.702;2023-05-20T04:13:48;12.80;;;8.07;;
25687;SDS011;17407;51.120;3.702;2023-05-20T04:16:13;14.07;;;7.82;;
25687;SDS011;17407;51.120;3.702;2023-05-20T04:18:39;17.65;;;7.70;;
25687;SDS011;17407;51.120;3.702;2023-05-20T04:21:05;17.73;;;7.75;;
25687;SDS011;17407;51.120;3.702;2023-05-20T04:23:32;13.63;;;8.10;;
25687;SDS011;17407;51.120;3.702;2023-05-20T04:25:57;15.35;;;8.05;;
25687;SDS011;17407;51.120;3.702;2023-05-20T04:28:26;13.38;;;7.53;;
25687;SDS011;17407;51.120;3.702;2023-05-20T04:31:00;14.13;;;7.25;;
25687;SDS011;17407;51.120;3.702;2023-05-20T04:33:29;14.38;;;7.82;;
25687;SDS011;17407;51.120;3.702;2023-05-20T04:35:56;17.17;;;7.93;;
25687;SDS011;17407;51.120;3.702;2023-05-20T04:38:23;13.35;;;7.88;;
25687;SDS011;17407;51.120;3.702;2023-05-20T04:40:54;17.02;;;7.85;;
25687;SDS011;17407;51.120;3.702;2023-05-20T04:43:22;16.05;;;7.68;;
25687;SDS011;17407;51.120;3.702;2023-05-20T04:45:53;14.77;;;8.13;;
25687;SDS011;17407;51.120;3.702;2023-05-20T04:48:22;11.93;;;6.70;;
25687;SDS011;17407;51.120;3.702;2023-05-20T04:50:48;11.02;;;7.00;;
25687;SDS011;17407;51.120;3.702;2023-05-20T04:53:14;18.05;;;8.13;;
25687;SDS011;17407;51.120;3.702;2023-05-20T04:55:41;15.35;;;7.75;;
25687;SDS011;17407;51.120;3.702;2023-05-20T04:58:07;15.20;;;8.98;;
25687;SDS011;17407;51.120;3.702;2023-05-20T05:00:39;17.88;;;7.47;;
25687;SDS011;17407;51.120;3.702;2023-05-20T05:03:06;13.05;;;7.13;;
25687;SDS011;17407;51.120;3.702;2023-05-20T05:05:33;12.77;;;7.30;;
25687;SDS011;17407;51.120;3.702;2023-05-20T05:08:01;13.52;;;7.80;;
25687;SDS011;17407;51.120;3.702;2023-05-20T05:10:27;15.60;;;8.57;;
25687;SDS011;17407;51.120;3.702;2023-05-20T05:12:53;14.43;;;7.53;;
25687;SDS011;17407;51.120;3.702;2023-05-20T05:15:19;14.00;;;7.35;;
25687;SDS011;17407;51.120;3.702;2023-05-20T05:17:44;14.27;;;7.60;;
25687;SDS011;17407;51.120;3.702;2023-05-20T05:20:10;16.77;;;8.38;;
25687;SDS011;17407;51.120;3.702;2023-05-20T05:22:36;12.88;;;7.65;;
25687;SDS011;17407;51.120;3.702;2023-05-20T05:25:03;16.40;;;8.00;;
25687;SDS011;17407;51.120;3.702;2023-05-20T05:27:30;13.80;;;8.07;;
25687;SDS011;17407;51.120;3.702;2023-05-20T05:29:56;12.05;;;8.52;;
25687;SDS011;17407;51.120;3.702;2023-05-20T05:32:22;18.98;;;8.85;;
25687;SDS011;17407;51.120;3.702;2023-05-20T05:34:47;18.95;;;8.77;;
25687;SDS011;17407;51.120;3.702;2023-05-20T05:37:13;17.00;;;8.55;;
25687;SDS011;17407;51.120;3.702;2023-05-20T05:39:39;13.70;;;8.18;;
25687;SDS011;17407;51.120;3.702;2023-05-20T05:42:05;13.40;;;8.27;;
25687;SDS011;17407;51.120;3.702;2023-05-20T05:44:30;12.00;;;8.77;;
25687;SDS011;17407;51.120;3.702;2023-05-20T05:46:56;14.32;;;9.07;;
25687;SDS011;17407;51.120;3.702;2023-05-20T05:49:21;13.13;;;7.68;;
25687;SDS011;17407;51.120;3.702;2023-05-20T05:51:47;14.75;;;8.32;;
25687;SDS011;17407;51.120;3.702;2023-05-20T05:54:14;17.52;;;9.40;;
25687;SDS011;17407;51.120;3.702;2023-05-20T05:56:39;15.70;;;7.88;;
25687;SDS011;17407;51.120;3.702;2023-05-20T05:59:05;13.20;;;8.45;;
25687;SDS011;17407;51.120;3.702;2023-05-20T06:01:31;12.75;;;7.95;;
25687;SDS011;17407;51.120;3.702;2023-05-20T06:03:57;13.02;;;7.80;;
25687;SDS011;17407;51.120;3.702;2023-05-20T06:06:22;13.63;;;7.90;;
25687;SDS011;17407;51.120;3.702;2023-05-20T06:08:48;14.63;;;7.53;;
25687;SDS011;17407;51.120;3.702;2023-05-20T06:11:13;14.32;;;7.68;;
25687;SDS011;17407;51.120;3.702;2023-05-20T06:13:39;17.67;;;8.57;;
25687;SDS011;17407;51.120;3.702;2023-05-20T06:16:05;18.52;;;8.43;;
25687;SDS011;17407;51.120;3.702;2023-05-20T06:18:30;11.15;;;7.85;;
25687;SDS011;17407;51.120;3.702;2023-05-20T06:20:56;17.77;;;8.60;;
25687;SDS011;17407;51.120;3.702;2023-05-20T06:23:22;15.48;;;7.53;;
25687;SDS011;17407;51.120;3.702;2023-05-20T06:25:48;12.82;;;7.78;;
25687;SDS011;17407;51.120;3.702;2023-05-20T06:28:14;15.98;;;8.80;;
25687;SDS011;17407;51.120;3.702;2023-05-20T06:30:40;15.70;;;7.60;;
25687;SDS011;17407;51.120;3.702;2023-05-20T06:33:06;9.43;;;7.05;;
25687;SDS011;17407;51.120;3.702;2023-05-20T06:35:32;12.38;;;7.88;;
25687;SDS011;17407;51.120;3.702;2023-05-20T06:38:00;15.13;;;7.38;;
25687;SDS011;17407;51.120;3.702;2023-05-20T06:40:26;12.57;;;8.27;;
25687;SDS011;17407;51.120;3.702;2023-05-20T06:42:52;21.17;;;7.47;;
25687;SDS011;17407;51.120;3.702;2023-05-20T06:45:18;14.45;;;7.40;;
25687;SDS011;17407;51.120;3.702;2023-05-20T06:47:44;11.88;;;6.72;;
25687;SDS011;17407;51.120;3.702;2023-05-20T06:50:11;12.95;;;8.32;;
25687;SDS011;17407;51.120;3.702;2023-05-20T06:52:37;14.05;;;7.28;;
25687;SDS011;17407;51.120;3.702;2023-05-20T06:55:03;13.00;;;7.57;;
25687;SDS011;17407;51.120;3.702;2023-05-20T06:57:29;11.52;;;6.95;;
25687;SDS011;17407;51.120;3.702;2023-05-20T06:59:55;14.98;;;6.93;;
25687;SDS011;17407;51.120;3.702;2023-05-20T07:02:21;13.93;;;6.95;;
25687;SDS011;17407;51.120;3.702;2023-05-20T07:04:47;8.65;;;6.85;;
25687;SDS011;17407;51.120;3.702;2023-05-20T07:07:12;9.98;;;7.25;;
25687;SDS011;17407;51.120;3.702;2023-05-20T07:09:38;12.45;;;6.78;;
25687;SDS011;17407;51.120;3.702;2023-05-20T07:12:04;11.63;;;6.55;;
25687;SDS011;17407;51.120;3.702;2023-05-20T07:14:30;10.32;;;6.20;;
25687;SDS011;17407;51.120;3.702;2023-05-20T07:16:56;11.60;;;6.80;;
25687;SDS011;17407;51.120;3.702;2023-05-20T07:19:21;12.73;;;6.72;;
25687;SDS011;17407;51.120;3.702;2023-05-20T07:21:47;14.77;;;6.38;;
25687;SDS011;17407;51.120;3.702;2023-05-20T07:24:14;10.00;;;6.20;;
25687;SDS011;17407;51.120;3.702;2023-05-20T07:26:40;10.15;;;5.75;;
25687;SDS011;17407;51.120;3.702;2023-05-20T07:29:06;8.93;;;6.35;;
25687;SDS011;17407;51.120;3.702;2023-05-20T07:31:32;10.25;;;6.20;;
25687;SDS011;17407;51.120;3.702;2023-05-20T07:33:57;11.85;;;7.25;;
25687;SDS011;17407;51.120;3.702;2023-05-20T07:36:25;12.98;;;6.32;;
25687;SDS011;17407;51.120;3.702;2023-05-20T07:38:51;9.27;;;6.05;;
25687;SDS011;17407;51.120;3.702;2023-05-20T07:41:17;11.18;;;6.57;;
25687;SDS011;17407;51.120;3.702;2023-05-20T07:43:42;10.85;;;6.97;;
25687;SDS011;17407;51.120;3.702;2023-05-20T07:46:08;12.43;;;6.82;;
25687;SDS011;17407;51.120;3.702;2023-05-20T07:48:34;7.72;;;6.32;;
25687;SDS011;17407;51.120;3.702;2023-05-20T07:51:00;9.80;;;6.32;;
25687;SDS011;17407;51.120;3.702;2023-05-20T07:53:25;7.20;;;5.60;;
25687;SDS011;17407;51.120;3.702;2023-05-20T07:55:51;11.20;;;5.85;;
25687;SDS011;17407;51.120;3.702;2023-05-20T07:58:17;12.45;;;6.65;;
25687;SDS011;17407;51.120;3.702;2023-05-20T08:00:43;10.38;;;5.88;;
25687;SDS011;17407;51.120;3.702;2023-05-20T08:03:09;9.55;;;6.15;;
25687;SDS011;17407;51.120;3.702;2023-05-20T08:05:36;10.23;;;5.88;;
25687;SDS011;17407;51.120;3.702;2023-05-20T08:08:02;9.77;;;6.25;;
25687;SDS011;17407;51.120;3.702;2023-05-20T08:10:28;12.25;;;6.70;;
25687;SDS011;17407;51.120;3.702;2023-05-20T08:12:54;7.35;;;5.88;;
25687;SDS011;17407;51.120;3.702;2023-05-20T08:15:20;10.07;;;6.18;;
25687;SDS011;17407;51.120;3.702;2023-05-20T08:17:46;9.45;;;5.78;;
25687;SDS011;17407;51.120;3.702;2023-05-20T08:20:11;7.93;;;6.05;;
25687;SDS011;17407;51.120;3.702;2023-05-20T08:22:37;9.25;;;6.20;;
25687;SDS011;17407;51.120;3.702;2023-05-20T08:25:05;12.35;;;6.22;;
25687;SDS011;17407;51.120;3.702;2023-05-20T08:27:32;11.68;;;6.03;;
25687;SDS011;17407;51.120;3.702;2023-05-20T08:29:58;10.77;;;5.95;;
25687;SDS011;17407;51.120;3.702;2023-05-20T08:32:24;8.35;;;5.82;;
25687;SDS011;17407;51.120;3.702;2023-05-20T08:34:50;9.13;;;5.38;;
25687;SDS011;17407;51.120;3.702;2023-05-20T08:37:15;12.25;;;5.88;;
25687;SDS011;17407;51.120;3.702;2023-05-20T08:39:41;9.40;;;5.93;;
25687;SDS011;17407;51.120;3.702;2023-05-20T08:42:09;9.40;;;5.60;;
25687;SDS011;17407;51.120;3.702;2023-05-20T08:44:37;7.63;;;5.20;;
25687;SDS011;17407;51.120;3.702;2023-05-20T08:47:04;7.78;;;5.75;;
25687;SDS011;17407;51.120;3.702;2023-05-20T08:49:30;9.27;;;5.90;;
25687;SDS011;17407;51.120;3.702;2023-05-20T08:51:56;10.80;;;5.22;;
25687;SDS011;17407;51.120;3.702;2023-05-20T08:54:24;5.78;;;4.68;;
25687;SDS011;17407;51.120;3.702;2023-05-20T08:57:08;9.40;;;5.70;;
25687;SDS011;17407;51.120;3.702;2023-05-20T08:59:39;13.15;;;5.93;;
25687;SDS011;17407;51.120;3.702;2023-05-20T09:02:07;11.25;;;6.15;;
25687;SDS011;17407;51.120;3.702;2023-05-20T09:04:34;8.32;;;5.50;;
25687;SDS011;17407;51.120;3.702;2023-05-20T09:07:00;12.80;;;5.03;;
25687;SDS011;17407;51.120;3.702;2023-05-20T09:09:26;9.80;;;5.40;;
25687;SDS011;17407;51.120;3.702;2023-05-20T09:11:53;8.93;;;5.50;;
25687;SDS011;17407;51.120;3.702;2023-05-20T09:14:19;34.47;;;7.55;;
25687;SDS011;17407;51.120;3.702;2023-05-20T09:16:44;13.13;;;5.32;;
25687;SDS011;17407;51.120;3.702;2023-05-20T09:19:11;14.30;;;5.53;;
25687;SDS011;17407;51.120;3.702;2023-05-20T09:21:37;9.70;;;5.80;;
25687;SDS011;17407;51.120;3.702;2023-05-20T09:24:05;6.50;;;5.32;;
25687;SDS011;17407;51.120;3.702;2023-05-20T09:26:31;9.38;;;5.32;;
25687;SDS011;17407;51.120;3.702;2023-05-20T09:28:58;6.57;;;4.68;;
25687;SDS011;17407;51.120;3.702;2023-05-20T09:31:25;7.78;;;4.63;;
25687;SDS011;17407;51.120;3.702;2023-05-20T09:36:25;29.98;;;6.57;;
25687;SDS011;17407;51.120;3.702;2023-05-20T09:38:55;8.90;;;5.20;;
25687;SDS011;17407;51.120;3.702;2023-05-20T09:41:25;16.05;;;5.85;;
25687;SDS011;17407;51.120;3.702;2023-05-20T09:43:58;7.65;;;5.50;;
25687;SDS011;17407;51.120;3.702;2023-05-20T09:46:24;8.63;;;5.20;;
25687;SDS011;17407;51.120;3.702;2023-05-20T09:48:52;6.15;;;5.07;;
25687;SDS011;17407;51.120;3.702;2023-05-20T09:51:18;8.52;;;4.35;;
25687;SDS011;17407;51.120;3.702;2023-05-20T09:53:44;11.77;;;5.10;;
25687;SDS011;17407;51.120;3.702;2023-05-20T09:56:10;10.73;;;4.47;;
25687;SDS011;17407;51.120;3.702;2023-05-20T09:58:37;6.85;;;4.55;;
25687;SDS011;17407;51.120;3.702;2023-05-20T10:01:04;5.07;;;4.15;;
25687;SDS011;17407;51.120;3.702;2023-05-20T10:03:31;8.60;;;4.65;;
25687;SDS011;17407;51.120;3.702;2023-05-20T10:08:56;12.35;;;4.40;;
25687;SDS011;17407;51.120;3.702;2023-05-20T10:19:34;7.18;;;4.50;;
25687;SDS011;17407;51.120;3.702;2023-05-20T10:22:07;13.68;;;4.57;;
25687;SDS011;17407;51.120;3.702;2023-05-20T10:24:56;6.50;;;4.03;;
25687;SDS011;17407;51.120;3.702;2023-05-20T10:27:24;8.82;;;5.18;;
25687;SDS011;17407;51.120;3.702;2023-05-20T10:29:56;7.97;;;4.43;;
25687;SDS011;17407;51.120;3.702;2023-05-20T10:34:51;12.57;;;4.63;;
25687;SDS011;17407;51.120;3.702;2023-05-20T10:37:23;9.60;;;4.68;;
25687;SDS011;17407;51.120;3.702;2023-05-20T10:39:51;5.75;;;4.40;;
25687;SDS011;17407;51.120;3.702;2023-05-20T10:42:27;19.17;;;5.10;;
25687;SDS011;17407;51.120;3.702;2023-05-20T10:44:54;11.73;;;4.88;;
25687;SDS011;17407;51.120;3.702;2023-05-20T10:47:19;14.88;;;4.43;;
25687;SDS011;17407;51.120;3.702;2023-05-20T10:49:45;11.45;;;4.63;;
25687;SDS011;17407;51.120;3.702;2023-05-20T10:52:17;10.88;;;4.60;;
25687;SDS011;17407;51.120;3.702;2023-05-20T10:54:56;8.73;;;3.75;;
25687;SDS011;17407;51.120;3.702;2023-05-20T10:57:24;6.47;;;3.97;;
25687;SDS011;17407;51.120;3.702;2023-05-20T10:59:51;5.28;;;3.80;;
25687;SDS011;17407;51.120;3.702;2023-05-20T11:02:18;5.43;;;3.58;;
25687;SDS011;17407;51.120;3.702;2023-05-20T11:04:50;13.10;;;4.30;;
25687;SDS011;17407;51.120;3.702;2023-05-20T11:07:29;8.55;;;3.40;;
25687;SDS011;17407;51.120;3.702;2023-05-20T11:09:56;8.13;;;3.58;;
25687;SDS011;17407;51.120;3.702;2023-05-20T11:12:22;5.57;;;3.47;;
25687;SDS011;17407;51.120;3.702;2023-05-20T11:14:49;5.28;;;3.22;;
25687;SDS011;17407;51.120;3.702;2023-05-20T11:17:16;13.93;;;4.47;;
25687;SDS011;17407;51.120;3.702;2023-05-20T11:19:43;6.00;;;3.20;;
25687;SDS011;17407;51.120;3.702;2023-05-20T11:22:09;4.35;;;3.17;;
25687;SDS011;17407;51.120;3.702;2023-05-20T11:24:36;9.45;;;3.40;;
25687;SDS011;17407;51.120;3.702;2023-05-20T11:27:02;7.65;;;3.50;;
25687;SDS011;17407;51.120;3.702;2023-05-20T11:29:28;15.20;;;3.60;;
25687;SDS011;17407;51.120;3.702;2023-05-20T11:31:56;5.68;;;3.20;;
25687;SDS011;17407;51.120;3.702;2023-05-20T11:34:22;13.05;;;3.25;;
25687;SDS011;17407;51.120;3.702;2023-05-20T11:36:54;5.50;;;3.35;;
25687;SDS011;17407;51.120;3.702;2023-05-20T11:39:21;6.63;;;3.20;;
25687;SDS011;17407;51.120;3.702;2023-05-20T11:41:46;6.82;;;3.20;;
25687;SDS011;17407;51.120;3.702;2023-05-20T11:44:12;5.72;;;2.90;;
25687;SDS011;17407;51.120;3.702;2023-05-20T11:46:41;6.43;;;3.65;;
25687;SDS011;17407;51.120;3.702;2023-05-20T11:49:08;6.78;;;3.40;;
25687;SDS011;17407;51.120;3.702;2023-05-20T11:51:34;9.30;;;3.58;;
25687;SDS011;17407;51.120;3.702;2023-05-20T11:54:02;11.55;;;4.22;;
25687;SDS011;17407;51.120;3.702;2023-05-20T11:56:29;6.95;;;3.97;;
25687;SDS011;17407;51.120;3.702;2023-05-20T11:58:58;7.93;;;3.20;;
25687;SDS011;17407;51.120;3.702;2023-05-20T12:01:25;5.05;;;3.00;;
25687;SDS011;17407;51.120;3.702;2023-05-20T12:03:53;3.40;;;2.72;;
25687;SDS011;17407;51.120;3.702;2023-05-20T12:06:19;3.55;;;2.75;;
25687;SDS011;17407;51.120;3.702;2023-05-20T12:08:45;7.97;;;3.13;;
25687;SDS011;17407;51.120;3.702;2023-05-20T12:11:11;8.05;;;3.22;;
25687;SDS011;17407;51.120;3.702;2023-05-20T12:13:38;5.93;;;2.88;;
25687;SDS011;17407;51.120;3.702;2023-05-20T12:16:04;4.10;;;3.20;;
25687;SDS011;17407;51.120;3.702;2023-05-20T12:18:31;7.60;;;2.92;;
25687;SDS011;17407;51.120;3.702;2023-05-20T12:20:58;4.32;;;3.03;;
25687;SDS011;17407;51.120;3.702;2023-05-20T12:23:24;6.63;;;4.10;;
25687;SDS011;17407;51.120;3.702;2023-05-20T12:25:50;6.88;;;3.30;;
25687;SDS011;17407;51.120;3.702;2023-05-20T12:28:16;25.20;;;3.60;;
25687;SDS011;17407;51.120;3.702;2023-05-20T12:30:42;6.45;;;3.05;;
25687;SDS011;17407;51.120;3.702;2023-05-20T12:33:08;6.43;;;3.17;;
25687;SDS011;17407;51.120;3.702;2023-05-20T12:35:37;6.95;;;3.97;;
25687;SDS011;17407;51.120;3.702;2023-05-20T12:38:05;6.18;;;3.40;;
25687;SDS011;17407;51.120;3.702;2023-05-20T12:40:31;9.20;;;3.47;;
25687;SDS011;17407;51.120;3.702;2023-05-20T12:42:59;6.15;;;3.25;;
25687;SDS011;17407;51.120;3.702;2023-05-20T12:45:25;2.95;;;2.65;;
25687;SDS011;17407;51.120;3.702;2023-05-20T12:47:51;6.47;;;3.13;;
25687;SDS011;17407;51.120;3.702;2023-05-20T12:50:18;8.27;;;3.75;;
25687;SDS011;17407;51.120;3.702;2023-05-20T12:52:43;8.32;;;3.00;;
25687;SDS011;17407;51.120;3.702;2023-05-20T12:55:09;6.22;;;3.10;;
25687;SDS011;17407;51.120;3.702;2023-05-20T12:57:41;7.97;;;2.95;;
25687;SDS011;17407;51.120;3.702;2023-05-20T13:00:08;6.22;;;2.92;;
25687;SDS011;17407;51.120;3.702;2023-05-20T13:02:35;6.07;;;3.08;;
25687;SDS011;17407;51.120;3.702;2023-05-20T13:05:01;6.65;;;3.35;;
25687;SDS011;17407;51.120;3.702;2023-05-20T13:07:26;7.03;;;3.05;;
25687;SDS011;17407;51.120;3.702;2023-05-20T13:09:52;4.65;;;2.70;;
25687;SDS011;17407;51.120;3.702;2023-05-20T13:12:18;3.55;;;3.25;;
25687;SDS011;17407;51.120;3.702;2023-05-20T13:14:44;7.80;;;3.08;;
25687;SDS011;17407;51.120;3.702;2023-05-20T13:17:10;6.72;;;2.95;;
25687;SDS011;17407;51.120;3.702;2023-05-20T13:19:36;6.07;;;2.80;;
25687;SDS011;17407;51.120;3.702;2023-05-20T13:22:02;4.53;;;2.92;;
25687;SDS011;17407;51.120;3.702;2023-05-20T13:24:30;4.97;;;3.05;;
25687;SDS011;17407;51.120;3.702;2023-05-20T13:26:56;4.13;;;2.90;;
25687;SDS011;17407;51.120;3.702;2023-05-20T13:29:21;11.95;;;3.72;;
25687;SDS011;17407;51.120;3.702;2023-05-20T13:31:47;7.65;;;3.22;;
25687;SDS011;17407;51.120;3.702;2023-05-20T13:34:13;7.50;;;3.05;;
25687;SDS011;17407;51.120;3.702;2023-05-20T13:36:39;5.03;;;3.00;;
25687;SDS011;17407;51.120;3.702;2023-05-20T13:39:05;6.40;;;3.60;;
25687;SDS011;17407;51.120;3.702;2023-05-20T13:41:31;6.63;;;3.35;;
25687;SDS011;17407;51.120;3.702;2023-05-20T13:43:56;5.82;;;3.28;;
25687;SDS011;17407;51.120;3.702;2023-05-20T13:46:22;4.50;;;3.63;;
25687;SDS011;17407;51.120;3.702;2023-05-20T13:48:48;7.05;;;3.63;;
25687;SDS011;17407;51.120;3.702;2023-05-20T13:51:14;4.63;;;3.65;;
25687;SDS011;17407;51.120;3.702;2023-05-20T13:53:40;4.80;;;3.17;;
25687;SDS011;17407;51.120;3.702;2023-05-20T13:56:05;4.55;;;3.20;;
25687;SDS011;17407;51.120;3.702;2023-05-20T13:58:33;4.60;;;3.15;;
25687;SDS011;17407;51.120;3.702;2023-05-20T14:01:00;6.68;;;3.20;;
25687;SDS011;17407;51.120;3.702;2023-05-20T14:03:27;4.20;;;3.00;;
25687;SDS011;17407;51.120;3.702;2023-05-20T14:05:54;4.95;;;3.22;;
25687;SDS011;17407;51.120;3.702;2023-05-20T14:08:19;6.07;;;3.40;;
25687;SDS011;17407;51.120;3.702;2023-05-20T14:10:47;6.20;;;3.35;;
25687;SDS011;17407;51.120;3.702;2023-05-20T14:13:13;4.07;;;3.15;;
25687;SDS011;17407;51.120;3.702;2023-05-20T14:15:39;5.38;;;3.25;;
25687;SDS011;17407;51.120;3.702;2023-05-20T14:18:05;3.92;;;3.40;;
25687;SDS011;17407;51.120;3.702;2023-05-20T14:20:30;3.75;;;3.03;;
25687;SDS011;17407;51.120;3.702;2023-05-20T14:22:56;4.45;;;2.67;;
25687;SDS011;17407;51.120;3.702;2023-05-20T14:25:22;3.28;;;2.63;;
25687;SDS011;17407;51.120;3.702;2023-05-20T14:27:48;3.35;;;2.67;;
25687;SDS011;17407;51.120;3.702;2023-05-20T14:30:14;5.72;;;3.38;;
25687;SDS011;17407;51.120;3.702;2023-05-20T14:32:40;7.28;;;3.17;;
25687;SDS011;17407;51.120;3.702;2023-05-20T14:35:06;5.70;;;2.97;;
25687;SDS011;17407;51.120;3.702;2023-05-20T14:37:32;6.68;;;2.95;;
25687;SDS011;17407;51.120;3.702;2023-05-20T14:39:58;7.30;;;3.70;;
25687;SDS011;17407;51.120;3.702;2023-05-20T14:42:24;4.18;;;3.20;;
25687;SDS011;17407;51.120;3.702;2023-05-20T14:44:50;4.35;;;2.97;;
25687;SDS011;17407;51.120;3.702;2023-05-20T14:47:15;4.15;;;3.08;;
25687;SDS011;17407;51.120;3.702;2023-05-20T14:49:46;6.00;;;3.38;;